createdAt,value
2018-01-19T00:01:58.559Z,7.93
2018-01-19T00:04:26.975Z,7.73
2018-01-19T00:06:55.540Z,7.00
2018-01-19T00:09:23.913Z,8.93
2018-01-19T00:11:52.361Z,6.13
2018-01-19T00:14:20.764Z,6.40
2018-01-19T00:16:49.328Z,8.87
2018-01-19T00:19:17.965Z,5.87
2018-01-19T00:21:47.137Z,5.77
2018-01-19T00:24:15.553Z,6.40
2018-01-19T00:26:43.932Z,4.70
2018-01-19T00:29:12.879Z,4.80
2018-01-19T00:31:41.463Z,4.30
2018-01-19T00:34:10.002Z,5.27
2018-01-19T00:36:38.350Z,5.70
2018-01-19T00:39:07.642Z,4.80
2018-01-19T00:41:36.939Z,5.07
2018-01-19T00:44:05.571Z,5.80
2018-01-19T00:46:34.245Z,6.17
2018-01-19T00:49:02.723Z,7.70
2018-01-19T00:51:30.894Z,6.73
2018-01-19T00:54:00.019Z,7.37
2018-01-19T00:56:28.372Z,6.67
2018-01-19T00:58:56.744Z,7.63
2018-01-19T01:01:25.870Z,8.20
2018-01-19T01:03:54.374Z,7.90
2018-01-19T01:06:22.874Z,8.57
2018-01-19T01:08:52.742Z,7.97
2018-01-19T01:11:21.114Z,8.60
2018-01-19T01:13:49.631Z,8.10
2018-01-19T01:16:17.988Z,8.40
2018-01-19T01:18:46.568Z,9.50
2018-01-19T01:21:14.979Z,9.03
2018-01-19T01:23:43.590Z,9.73
2018-01-19T01:26:12.904Z,9.50
2018-01-19T01:28:41.264Z,9.73
2018-01-19T01:31:10.549Z,11.03
2018-01-19T01:33:38.911Z,10.10
2018-01-19T01:36:08.067Z,10.53
2018-01-19T01:38:36.420Z,11.57
2018-01-19T01:41:05.872Z,11.47
2018-01-19T01:43:34.520Z,11.63
2018-01-19T01:46:02.864Z,13.30
2018-01-19T01:48:31.620Z,11.10
2018-01-19T01:50:59.839Z,12.50
2018-01-19T01:53:29.022Z,10.83
2018-01-19T01:55:57.507Z,14.20
2018-01-19T01:58:25.974Z,10.83
2018-01-19T02:00:54.370Z,9.83
2018-01-19T02:03:23.660Z,9.00
2018-01-19T02:05:52.095Z,7.30
2018-01-19T02:08:20.628Z,6.40
2018-01-19T02:10:49.755Z,7.13
2018-01-19T02:13:18.379Z,7.30
2018-01-19T02:15:46.878Z,6.80
2018-01-19T02:18:16.163Z,8.47
2018-01-19T02:20:44.427Z,8.07
2018-01-19T02:23:12.765Z,8.00
2018-01-19T02:25:41.259Z,9.33
2018-01-19T02:28:09.780Z,9.43
2018-01-19T02:30:38.186Z,12.33
2018-01-19T02:33:06.569Z,9.70
2018-01-19T02:35:35.975Z,11.17
2018-01-19T02:38:04.381Z,11.27
2018-01-19T02:40:32.784Z,11.80
2018-01-19T02:43:01.763Z,11.37
2018-01-19T02:45:30.103Z,14.50
2018-01-19T02:47:58.529Z,14.40
2018-01-19T02:50:27.013Z,12.43
2018-01-19T02:52:55.710Z,15.23
2018-01-19T02:55:24.995Z,14.63
2018-01-19T02:57:53.362Z,15.83
2018-01-19T03:00:21.884Z,16.70
2018-01-19T03:02:50.277Z,16.43
2018-01-19T03:05:19.702Z,17.50
2018-01-19T03:07:48.261Z,16.80
2018-01-19T03:10:17.669Z,13.43
2018-01-19T03:12:46.795Z,15.47
2018-01-19T03:15:15.196Z,13.33
2018-01-19T03:17:44.190Z,14.97
2018-01-19T03:20:12.723Z,19.73
2018-01-19T03:22:41.707Z,18.13
2018-01-19T03:25:10.839Z,19.53
2018-01-19T03:27:39.387Z,20.23
2018-01-19T03:30:07.759Z,25.13
2018-01-19T03:32:36.878Z,30.67
2018-01-19T03:35:05.264Z,32.10
2018-01-19T03:37:33.638Z,29.00
2018-01-19T03:40:02.067Z,25.03
2018-01-19T03:42:30.422Z,25.53
2018-01-19T03:44:58.795Z,27.23
2018-01-19T03:47:27.345Z,20.13
2018-01-19T03:49:55.738Z,24.47
2018-01-19T03:52:24.121Z,22.13
2018-01-19T03:54:52.641Z,18.20
2018-01-19T03:57:22.572Z,15.47
2018-01-19T03:59:51.730Z,13.13
2018-01-19T04:02:20.138Z,10.53
2018-01-19T04:04:48.491Z,10.27
2018-01-19T04:07:17.092Z,12.47
2018-01-19T04:09:45.486Z,10.70
2018-01-19T04:12:14.902Z,9.67
2018-01-19T04:14:43.250Z,9.33
2018-01-19T04:17:11.648Z,10.50
2018-01-19T04:19:40.808Z,10.80
2018-01-19T04:22:09.177Z,10.50
2018-01-19T04:24:37.571Z,12.97
2018-01-19T04:27:05.951Z,11.80
2018-01-19T04:29:34.569Z,13.77
2018-01-19T04:32:03.842Z,12.43
2018-01-19T04:34:32.032Z,12.70
2018-01-19T04:37:00.997Z,13.37
2018-01-19T04:39:29.340Z,13.00
2018-01-19T04:42:00.988Z,11.37
2018-01-19T04:44:29.678Z,11.73
2018-01-19T04:46:58.049Z,11.77
2018-01-19T04:49:26.547Z,11.33
2018-01-19T04:51:54.911Z,9.90
2018-01-19T04:54:23.333Z,9.27
2018-01-19T04:56:51.772Z,10.67
2018-01-19T04:59:20.295Z,9.43
2018-01-19T05:01:48.642Z,14.23
2018-01-19T05:04:17.010Z,11.37
2018-01-19T05:06:45.452Z,11.40
2018-01-19T05:09:14.591Z,13.80
2018-01-19T05:11:43.114Z,17.27
2018-01-19T05:14:12.267Z,19.70
2018-01-19T05:16:40.634Z,21.80
2018-01-19T05:19:08.972Z,27.90
2018-01-19T05:21:38.275Z,17.63
2018-01-19T05:24:07.408Z,25.17
2018-01-19T05:26:36.061Z,23.07
2018-01-19T05:29:05.563Z,22.13
2018-01-19T05:31:34.699Z,29.03
2018-01-19T05:34:03.068Z,25.70
2018-01-19T05:36:31.419Z,24.77
2018-01-19T05:39:00.703Z,29.20
2018-01-19T05:41:30.046Z,31.90
2018-01-19T05:43:58.524Z,34.47
2018-01-19T05:46:26.904Z,34.20
2018-01-19T05:48:55.544Z,24.20
2018-01-19T05:51:23.886Z,36.50
2018-01-19T05:53:52.259Z,34.53
2018-01-19T05:56:21.111Z,34.13
2018-01-19T05:58:50.284Z,29.20
2018-01-19T06:01:19.501Z,33.57
2018-01-19T06:03:47.866Z,36.63
2018-01-19T06:06:16.981Z,41.47
2018-01-19T06:08:46.213Z,61.17
2018-01-19T06:11:14.582Z,52.43
2018-01-19T06:13:42.943Z,62.53
2018-01-19T06:16:11.297Z,51.73
2018-01-19T06:18:40.520Z,50.33
2018-01-19T06:21:08.893Z,46.43
2018-01-19T06:23:37.576Z,43.40
2018-01-19T06:26:05.930Z,52.30
2018-01-19T06:28:35.034Z,48.87
2018-01-19T06:31:04.374Z,45.10
2018-01-19T06:33:32.734Z,51.80
2018-01-19T06:36:01.198Z,58.60
2018-01-19T06:38:30.171Z,60.53
2018-01-19T06:40:58.542Z,41.50
2018-01-19T06:43:26.886Z,40.63
2018-01-19T06:45:55.272Z,45.60
2018-01-19T06:48:23.640Z,36.13
2018-01-19T06:50:52.251Z,33.83
2018-01-19T06:53:20.637Z,32.73
2018-01-19T06:55:49.952Z,34.77
2018-01-19T06:58:19.102Z,33.97
2018-01-19T07:00:47.525Z,35.20
2018-01-19T07:03:16.672Z,40.87
2018-01-19T07:05:45.186Z,48.70
2018-01-19T07:08:13.561Z,49.77
2018-01-19T07:10:42.073Z,45.77
2018-01-19T07:13:11.202Z,44.30
2018-01-19T07:15:39.662Z,45.33
2018-01-19T07:18:08.067Z,41.87
2018-01-19T07:20:36.405Z,37.47
2018-01-19T07:23:04.650Z,38.17
2018-01-19T07:25:33.624Z,37.83
2018-01-19T07:28:01.982Z,37.13
2018-01-19T07:30:30.355Z,35.63
2018-01-19T07:32:58.723Z,36.17
2018-01-19T07:35:27.242Z,28.90
2018-01-19T07:37:55.697Z,32.63
2018-01-19T07:40:23.991Z,29.30
2018-01-19T07:42:52.623Z,27.80
2018-01-19T07:45:21.644Z,33.00
2018-01-19T07:47:50.001Z,29.00
2018-01-19T07:50:18.396Z,24.27
2018-01-19T07:52:46.751Z,24.50
2018-01-19T07:55:16.122Z,24.80
2018-01-19T07:57:46.000Z,24.63
2018-01-19T08:00:14.350Z,25.40
2018-01-19T08:02:42.824Z,24.50
2018-01-19T08:05:11.187Z,24.83
2018-01-19T08:07:40.332Z,28.00
2018-01-19T08:10:08.876Z,27.90
2018-01-19T08:12:37.251Z,29.83
2018-01-19T08:15:06.467Z,26.43
2018-01-19T08:17:34.865Z,25.43
2018-01-19T08:20:02.899Z,24.50
2018-01-19T08:22:31.269Z,22.10
2018-01-19T08:25:00.955Z,22.03
2018-01-19T08:27:29.334Z,25.97
2018-01-19T08:29:57.905Z,21.90
2018-01-19T08:32:26.462Z,25.00
2018-01-19T08:34:54.861Z,26.63
2018-01-19T08:37:23.405Z,25.40
2018-01-19T08:39:51.864Z,25.73
2018-01-19T08:42:20.581Z,29.37
2018-01-19T08:44:49.376Z,24.03
2018-01-19T08:47:17.725Z,30.53
2018-01-19T08:49:46.912Z,23.80
2018-01-19T08:52:16.017Z,26.30
2018-01-19T08:54:44.374Z,22.23
2018-01-19T08:57:13.510Z,21.10
2018-01-19T08:59:41.903Z,21.50
2018-01-19T09:02:10.574Z,21.40
2018-01-19T09:04:38.925Z,22.97
2018-01-19T09:07:07.323Z,22.90
2018-01-19T09:09:35.679Z,21.40
2018-01-19T09:12:04.038Z,24.43
2018-01-19T09:14:32.430Z,23.57
2018-01-19T09:17:01.562Z,16.73
2018-01-19T09:19:29.924Z,21.03
2018-01-19T09:21:57.946Z,24.17
2018-01-19T09:24:26.285Z,19.20
2018-01-19T09:26:54.470Z,24.57
2018-01-19T09:29:23.117Z,17.50
2018-01-19T09:31:52.241Z,24.80
2018-01-19T09:34:20.754Z,23.40
2018-01-19T09:36:50.061Z,20.83
2018-01-19T09:39:18.436Z,23.17
2018-01-19T09:41:47.799Z,19.17
2018-01-19T09:44:16.136Z,21.37
2018-01-19T09:46:45.074Z,23.83
2018-01-19T09:49:14.617Z,23.33
2018-01-19T09:51:42.987Z,17.57
2018-01-19T09:54:11.355Z,21.90
2018-01-19T09:56:39.708Z,21.57
2018-01-19T09:59:08.215Z,18.87
2018-01-19T10:01:36.698Z,23.83
2018-01-19T10:04:05.805Z,18.23
2018-01-19T10:06:34.155Z,15.97
2018-01-19T10:09:02.514Z,15.70
2018-01-19T10:11:30.979Z,10.87
2018-01-19T10:13:59.387Z,13.87
2018-01-19T10:16:27.923Z,14.63
2018-01-19T10:18:57.084Z,14.27
2018-01-19T10:21:25.603Z,13.70
2018-01-19T10:23:54.842Z,17.30
2018-01-19T10:26:23.177Z,10.97
2018-01-19T10:28:51.586Z,14.10
2018-01-19T10:31:19.925Z,15.90
2018-01-19T10:33:49.047Z,14.83
2018-01-19T10:36:17.413Z,12.73
2018-01-19T10:38:45.904Z,11.10
2018-01-19T10:41:14.730Z,14.13
2018-01-19T10:43:43.201Z,14.30
2018-01-19T10:46:12.476Z,15.00
2018-01-19T10:48:41.502Z,14.70
2018-01-19T10:51:10.188Z,14.77
2018-01-19T10:53:38.842Z,10.37
2018-01-19T10:56:07.227Z,10.00
2018-01-19T10:58:35.870Z,12.60
2018-01-19T11:01:05.023Z,13.77
2018-01-19T11:03:33.395Z,13.10
2018-01-19T11:06:01.737Z,11.20
2018-01-19T11:08:31.225Z,12.33
2018-01-19T11:11:00.388Z,14.07
2018-01-19T11:13:28.789Z,9.20
2018-01-19T11:15:57.901Z,9.30
2018-01-19T11:18:27.038Z,11.13
2018-01-19T11:20:55.382Z,7.73
2018-01-19T11:23:24.534Z,9.60
2018-01-19T11:25:52.877Z,11.70
2018-01-19T11:28:21.320Z,10.10
2018-01-19T11:30:49.828Z,8.93
2018-01-19T11:33:18.402Z,11.00
2018-01-19T11:35:46.600Z,13.20
2018-01-19T11:38:14.952Z,12.23
2018-01-19T11:40:43.802Z,13.80
2018-01-19T11:43:12.132Z,9.43
2018-01-19T11:45:40.502Z,20.70
2018-01-19T11:48:08.846Z,16.90
2018-01-19T11:50:38.031Z,13.67
2018-01-19T11:53:06.423Z,12.53
2018-01-19T11:55:34.880Z,11.17
2018-01-19T11:58:03.397Z,12.27
2018-01-19T12:00:31.757Z,8.57
2018-01-19T12:03:00.206Z,16.23
2018-01-19T12:05:28.599Z,8.80
2018-01-19T12:07:57.034Z,8.50
2018-01-19T12:10:25.406Z,8.73
2018-01-19T12:12:53.927Z,9.00
2018-01-19T12:15:22.286Z,8.77
2018-01-19T12:17:50.788Z,11.30
2018-01-19T12:20:19.235Z,8.03
2018-01-19T12:22:47.606Z,15.47
2018-01-19T12:25:16.209Z,11.23
2018-01-19T12:27:44.580Z,11.43
2018-01-19T12:30:12.923Z,7.90
2018-01-19T12:32:42.536Z,10.60
2018-01-19T12:35:11.038Z,13.83
2018-01-19T12:37:39.500Z,11.30
2018-01-19T12:40:07.856Z,15.97
2018-01-19T12:42:36.987Z,14.10
2018-01-19T12:45:05.332Z,14.00
2018-01-19T12:47:34.515Z,10.07
2018-01-19T12:50:04.298Z,14.53
2018-01-19T12:52:32.657Z,9.60
2018-01-19T12:55:01.115Z,14.83
2018-01-19T12:57:29.485Z,10.37
2018-01-19T12:59:58.810Z,11.40
2018-01-19T13:02:27.148Z,9.70
2018-01-19T13:04:56.350Z,9.27
2018-01-19T13:07:24.837Z,26.10
2018-01-19T13:09:53.983Z,11.63
2018-01-19T13:12:22.321Z,10.20
2018-01-19T13:14:50.681Z,13.33
2018-01-19T13:17:19.792Z,14.77
2018-01-19T13:19:48.331Z,13.10
2018-01-19T13:22:16.703Z,10.80
2018-01-19T13:24:44.881Z,7.43
2018-01-19T13:27:13.228Z,13.43
2018-01-19T13:29:41.689Z,8.13
2018-01-19T13:32:10.798Z,6.73
2018-01-19T13:34:39.127Z,9.80
2018-01-19T13:37:08.279Z,11.23
2018-01-19T13:39:36.622Z,9.77
2018-01-19T13:42:04.977Z,7.77
2018-01-19T13:44:33.326Z,8.50
2018-01-19T13:47:01.696Z,8.53
2018-01-19T13:49:30.086Z,8.80
2018-01-19T13:51:58.446Z,9.43
2018-01-19T13:54:26.808Z,8.70
2018-01-19T13:56:55.160Z,8.00
2018-01-19T13:59:24.423Z,7.50
2018-01-19T14:01:52.790Z,8.87
2018-01-19T14:04:21.159Z,10.40
2018-01-19T14:06:49.530Z,15.77
2018-01-19T14:09:18.144Z,14.23
2018-01-19T14:11:46.611Z,8.93
2018-01-19T14:14:14.997Z,9.70
2018-01-19T14:16:43.371Z,11.23
2018-01-19T14:19:11.761Z,9.40
2018-01-19T14:21:40.281Z,11.30
2018-01-19T14:24:08.829Z,11.60
2018-01-19T14:26:37.261Z,7.97
2018-01-19T14:29:05.341Z,15.30
2018-01-19T14:31:33.715Z,6.97
2018-01-19T14:34:02.096Z,11.73
2018-01-19T14:36:30.684Z,6.90
2018-01-19T14:38:59.034Z,5.83
2018-01-19T14:41:27.444Z,5.70
2018-01-19T14:43:55.816Z,13.40
2018-01-19T14:46:24.264Z,13.80
2018-01-19T14:48:53.386Z,9.80
2018-01-19T14:51:21.899Z,9.83
2018-01-19T14:53:50.889Z,8.53
2018-01-19T14:56:19.254Z,8.93
2018-01-19T14:58:47.598Z,8.97
2018-01-19T15:01:16.147Z,13.40
2018-01-19T15:03:44.486Z,9.57
2018-01-19T15:06:12.867Z,8.00
2018-01-19T15:08:41.332Z,7.00
2018-01-19T15:11:09.867Z,12.03
2018-01-19T15:13:39.006Z,15.13
2018-01-19T15:16:07.042Z,12.17
2018-01-19T15:18:35.421Z,9.43
2018-01-19T15:21:04.551Z,5.00
2018-01-19T15:23:32.929Z,9.17
2018-01-19T15:26:01.283Z,8.67
2018-01-19T15:28:29.683Z,6.80
2018-01-19T15:30:58.050Z,6.60
2018-01-19T15:33:26.547Z,6.43
2018-01-19T15:35:54.919Z,11.47
2018-01-19T15:38:23.331Z,9.87
2018-01-19T15:40:52.902Z,8.57
2018-01-19T15:43:21.301Z,8.30
2018-01-19T15:45:49.626Z,7.93
2018-01-19T15:48:18.740Z,8.13
2018-01-19T15:50:47.091Z,8.90
2018-01-19T15:53:16.206Z,8.07
2018-01-19T15:55:44.565Z,7.80
2018-01-19T15:58:13.833Z,6.33
2018-01-19T16:00:42.186Z,6.17
2018-01-19T16:03:10.556Z,6.40
2018-01-19T16:05:39.659Z,14.07
2018-01-19T16:08:08.029Z,9.50
2018-01-19T16:10:36.387Z,13.97
2018-01-19T16:13:08.119Z,12.93
2018-01-19T16:15:36.479Z,6.07
2018-01-19T16:18:04.858Z,6.30
2018-01-19T16:20:33.227Z,9.77
2018-01-19T16:23:01.576Z,13.33
2018-01-19T16:25:30.167Z,8.07
2018-01-19T16:27:58.608Z,9.90
2018-01-19T16:30:27.840Z,9.63
2018-01-19T16:32:56.180Z,8.53
2018-01-19T16:35:25.314Z,11.50
2018-01-19T16:37:54.988Z,10.80
2018-01-19T16:40:24.596Z,7.57
2018-01-19T16:42:53.719Z,11.23
2018-01-19T16:45:22.257Z,10.80
2018-01-19T16:47:50.271Z,10.90
2018-01-19T16:50:18.641Z,8.10
2018-01-19T16:52:46.981Z,15.43
2018-01-19T16:55:16.316Z,8.57
2018-01-19T16:57:44.897Z,6.77
2018-01-19T17:00:13.232Z,8.90
2018-01-19T17:02:41.590Z,12.77
2018-01-19T17:05:10.047Z,8.07
2018-01-19T17:07:38.461Z,11.17
2018-01-19T17:10:06.826Z,11.17
2018-01-19T17:12:35.204Z,9.50
2018-01-19T17:15:03.772Z,10.03
2018-01-19T17:17:32.174Z,12.33
2018-01-19T17:20:01.028Z,12.90
2018-01-19T17:22:29.459Z,11.50
2018-01-19T17:24:57.923Z,17.37
2018-01-19T17:27:26.275Z,8.00
2018-01-19T17:29:54.653Z,16.20
2018-01-19T17:32:23.003Z,17.47
2018-01-19T17:34:51.364Z,9.73
2018-01-19T17:37:20.510Z,10.20
2018-01-19T17:39:49.053Z,10.40
2018-01-19T17:42:18.228Z,10.07
2018-01-19T17:44:47.541Z,11.70
2018-01-19T17:47:15.918Z,11.10
2018-01-19T17:49:45.039Z,12.20
2018-01-19T17:52:13.403Z,15.23
2018-01-19T17:54:42.424Z,13.87
2018-01-19T17:57:10.818Z,18.73
2018-01-19T17:59:39.422Z,8.40
2018-01-19T18:02:07.790Z,26.43
2018-01-19T18:04:37.657Z,11.43
2018-01-19T18:07:06.036Z,13.93
2018-01-19T18:09:34.397Z,10.20
2018-01-19T18:12:02.738Z,9.73
2018-01-19T18:14:32.918Z,15.67
2018-01-19T18:17:01.088Z,14.57
2018-01-19T18:19:29.447Z,17.40
2018-01-19T18:21:57.465Z,13.83
2018-01-19T18:24:25.850Z,12.53
2018-01-19T18:26:54.819Z,7.53
2018-01-19T18:29:23.183Z,10.53
2018-01-19T18:31:51.627Z,11.27
2018-01-19T18:34:20.762Z,15.00
2018-01-19T18:36:49.142Z,14.80
2018-01-19T18:39:17.514Z,16.40
2018-01-19T18:41:45.866Z,16.43
2018-01-19T18:44:15.042Z,10.63
2018-01-19T18:46:43.395Z,17.17
2018-01-19T18:49:11.775Z,13.70
2018-01-19T18:51:40.236Z,16.90
2018-01-19T18:54:08.653Z,10.43
2018-01-19T18:56:37.919Z,11.10
2018-01-19T18:59:06.426Z,15.80
2018-01-19T19:01:34.767Z,9.97
2018-01-19T19:04:04.790Z,8.67
2018-01-19T19:06:33.235Z,10.43
2018-01-19T19:09:01.604Z,15.93
2018-01-19T19:11:29.981Z,9.70
2018-01-19T19:13:59.081Z,8.20
2018-01-19T19:16:28.480Z,12.40
2018-01-19T19:18:57.745Z,11.37
2018-01-19T19:21:26.114Z,12.60
2018-01-19T19:23:54.357Z,13.90
2018-01-19T19:26:22.983Z,14.30
2018-01-19T19:28:51.398Z,13.23
2018-01-19T19:31:20.522Z,10.03
2018-01-19T19:33:49.076Z,12.60
2018-01-19T19:36:18.253Z,11.20
2018-01-19T19:38:47.409Z,10.13
2018-01-19T19:41:15.769Z,14.20
2018-01-19T19:43:44.216Z,9.97
2018-01-19T19:46:13.334Z,14.20
2018-01-19T19:48:41.686Z,13.90
2018-01-19T19:51:10.903Z,14.70
2018-01-19T19:53:39.290Z,16.43
2018-01-19T19:56:07.735Z,18.27
2018-01-19T19:58:36.103Z,16.13
2018-01-19T20:01:05.310Z,13.67
2018-01-19T20:03:34.494Z,12.53
2018-01-19T20:06:02.861Z,12.50
2018-01-19T20:08:31.216Z,14.20
2018-01-19T20:10:59.594Z,9.50
2018-01-19T20:13:28.666Z,15.70
2018-01-19T20:15:57.051Z,12.37
2018-01-19T20:18:25.418Z,12.73
2018-01-19T20:20:54.488Z,9.10
2018-01-19T20:23:23.619Z,11.70
2018-01-19T20:25:51.991Z,14.23
2018-01-19T20:28:20.388Z,12.53
2018-01-19T20:30:49.310Z,12.40
2018-01-19T20:33:17.670Z,12.40
2018-01-19T20:35:46.063Z,10.80
2018-01-19T20:38:14.297Z,11.10
2018-01-19T20:40:42.674Z,6.93
2018-01-19T20:43:11.048Z,8.70
2018-01-19T20:45:39.463Z,12.50
2018-01-19T20:48:07.811Z,14.20
2018-01-19T20:50:36.214Z,9.27
2018-01-19T20:53:04.739Z,12.97
2018-01-19T20:55:34.118Z,10.20
2018-01-19T20:58:02.704Z,11.27
2018-01-19T21:00:31.062Z,20.20
2018-01-19T21:02:59.498Z,13.37
2018-01-19T21:05:28.030Z,10.17
2018-01-19T21:07:56.428Z,9.93
2018-01-19T21:10:24.798Z,13.10
2018-01-19T21:12:53.225Z,11.40
2018-01-19T21:15:22.297Z,11.67
2018-01-19T21:17:51.254Z,10.63
2018-01-19T21:20:19.752Z,11.13
2018-01-19T21:22:49.026Z,9.77
2018-01-19T21:25:17.429Z,13.70
2018-01-19T21:27:46.596Z,11.30
2018-01-19T21:30:15.020Z,10.80
2018-01-19T21:32:44.383Z,11.70
2018-01-19T21:35:12.763Z,14.30
2018-01-19T21:37:41.120Z,12.00
2018-01-19T21:40:09.493Z,9.50
2018-01-19T21:42:37.892Z,13.50
2018-01-19T21:45:06.277Z,10.37
2018-01-19T21:47:34.843Z,17.37
2018-01-19T21:50:03.260Z,11.33
2018-01-19T21:52:32.408Z,10.97
2018-01-19T21:55:00.931Z,10.33
2018-01-19T21:57:30.084Z,11.50
2018-01-19T21:59:58.658Z,13.50
2018-01-19T22:02:27.212Z,13.60
2018-01-19T22:04:55.769Z,10.73
2018-01-19T22:07:24.152Z,15.33
2018-01-19T22:09:53.820Z,18.27
2018-01-19T22:12:22.192Z,15.60
2018-01-19T22:14:50.595Z,13.80
2018-01-19T22:17:18.960Z,12.73
2018-01-19T22:19:47.353Z,14.90
2018-01-19T22:22:15.710Z,9.70
2018-01-19T22:24:44.102Z,8.90
2018-01-19T22:27:12.687Z,12.97
2018-01-19T22:29:41.509Z,11.10
2018-01-19T22:32:10.443Z,16.23
2018-01-19T22:34:38.837Z,12.10
2018-01-19T22:37:07.036Z,13.30
2018-01-19T22:39:37.218Z,13.63
2018-01-19T22:42:05.403Z,12.77
2018-01-19T22:44:33.830Z,10.83
2018-01-19T22:47:02.963Z,9.33
2018-01-19T22:49:31.331Z,10.93
2018-01-19T22:52:01.183Z,9.73
2018-01-19T22:54:29.541Z,12.87
2018-01-19T22:56:57.952Z,17.10
2018-01-19T22:59:26.333Z,9.03
2018-01-19T23:01:55.062Z,9.40
2018-01-19T23:04:23.405Z,10.93
2018-01-19T23:06:52.655Z,13.03
2018-01-19T23:09:21.020Z,9.73
2018-01-19T23:11:49.395Z,11.17
2018-01-19T23:14:17.836Z,16.23
2018-01-19T23:16:47.024Z,10.27
2018-01-19T23:19:15.559Z,17.97
2018-01-19T23:21:48.645Z,9.20
2018-01-19T23:24:17.324Z,13.27
2018-01-19T23:26:45.813Z,15.47
2018-01-19T23:29:14.376Z,10.93
2018-01-19T23:31:43.519Z,12.00
2018-01-19T23:34:11.886Z,14.60
2018-01-19T23:36:40.303Z,11.33
2018-01-19T23:39:08.679Z,13.77
2018-01-19T23:41:37.097Z,8.03
2018-01-19T23:44:05.476Z,10.67
2018-01-19T23:46:33.819Z,12.23
2018-01-19T23:49:03.327Z,9.70
2018-01-19T23:51:32.459Z,6.07
2018-01-19T23:54:00.844Z,8.97
2018-01-19T23:56:29.345Z,9.37
2018-01-19T23:58:57.867Z,6.00
